Más de esta sección

Vuelo de bajo nivel - Aeronáutica

 

VUELOS DE BAJO NIVEL DESDE SUPERFICIE HASTA 24,000 PIES

 VALIDO DESDE 271200Z...………………HASTA 280000ZSALIDA  Y  PUESTA  DEL  SOL  06:26/18:43 

SANTO DOMINGO FIR...PORT-AU-PRINCE FIR HISPANIOLA...SCT020 SCT-BKN060 TOP ABV FL240. OCNL BKN018. WDLY SCT SHRA/ISOL TSRA MAINLY SWRN 1/4 BECMG SCT TSRA THRUT AFT 18Z. OTLK...VFR TSRA BECMG VFR AFT 04Z. OTLK...VFR. WTRS S 19N/W 70W...SCT020 SCT-BKN060 TOP ABV FL240. OCNL BKN018. WDLY SCT SHRA/TSRA. OTLK...VFR SHRA. RMNDR WTRS...SCT020 SCT060. ISOL SHRA/TSRA. OTLK...VFR.

 

 

5,000 FT.

10,000 FT.

18,000 FT.

24,000 FT.

MDSD

      0810KT+19ºC

3605+10ºC

2408KT-07ºC

 2410KT-18ºC

MTPP

       0810KT+19ºC

3105+10ºC

2410KT-07ºC

2410KT-18ºC

TJSJ

0810KT+18ºC

0505+10ºC

2305KT-06ºC

2310KT-18ºC

 

 

 

 

 

 

 

TAF MDPP 271000Z 2712/2812 00000KT 9999 FEW018 BECMG 2714/2716 09010KT=

TAF MDST 271000Z 2712/2812 11010KT 9999 SCT023 PROB30 2712/2718 7000-SHRA BKN018 BECMG 2713/2715 00000KT=              

TAF MDPC 271000Z 2712/2812 11006KT 9999 SCT018 PROB30 2712/2718 8000-TSRA FEW017CB SCT018 BKN070=

 TAF MDBH 271000Z 2712/2812 14005KT 8000-TSRA FEW020CB BKN020=

TAF MDJB 271000Z 2712/2812 00000KT 9999 FEW020CB SCT022 PROB30 2800/2806 8000-TSRA FEW016CB BKN016=

TAF MDSD 271000Z 2712/2812 14005KT 9999 FEW020CB SCT022 PROB30 2800/2806 7000-TSRA FEW016CB BKN016 =

TAF MDLR 271000Z 2712/2812 15005KT 9999 FEW020CB SCT022 FM 2717/2800 7000-TSRA FEW016CB BKN016 BKN070=

TAF MDCY 271000Z 2712/2812 00000KT 9999 FEW018CB SCT018 PROB30 2800/2806 7000-TSRA FEW016CB SCT018=

 

KMIA 270846Z 2709/2812 06007KT P6SM FEW035 FM271500 06014KT P6SM SCT035 BKN050 FM280200 06005KT P6SM SCT030

 

KJFK 270813Z 2708/2812 25010KT P6SM SCT070 BKN100 FM271400 24013KT P6SM SCT070 BKN100 FM271700 23016G23KT P6SM SCT100 SCT250 FM271900 20021G28KT P6SM SCT100 SCT250 FM280300 23014KT P6SM SCT060 SCT100 SCT150 FM280700 23008KT P6SM SCT060 SCT100 BKN150

 

TJSJ 270533Z 2706/2806 11005KT P6SM FEW025 FEW080 FM270900 VRB02KT P6SM VCSH SCT025 SCT050 FM271400 06012KT P6SM SCT030
FM272300 10006KT P6SM FEW025 SCT040

 

MUHA 270500Z 2706/2806 VRB03KT 9000 FEW030 BECMG 2714/2716 06011KT PROB30 TEMPO 2719/2723 VRB10KT 4000 TSRA FEW018CB BKN025 BECMG 2801/2803 VRB03KT

 

TAF MUGM 2707/2807 32007KT 9999 FEW040 SCT080 BKN250 QNH2989INS FM271500 14008KT 9999 FEW080 FEW250 QNH2990INS BECMG 2719/2721 15010KT 9999 FEW100 SCT150 BKN250 QNH2985INS BECMG 2722/2800 VRB06KT 9999 SCT150 BKN250 QNH2990INS FM280500 VRB06KT 9999 FEW100 SCT250 QNH2986INS T25/2709Z T31/2718Z FN00237

 

TAF TNCC 270515Z 2706/2806 10010KT 9999 FEW018

 

TAF MKJP 270515Z 2706/2806 33004KT 9999 FEW022 BECMG 2714/2716 18010KT PROB30 TEMPO 2719/2923 TS SCT020 SCT022CB BECMG 2802/2804 35005KT

 

 

PREPARADO POR: ANGEL DE JESUS FROMETA 27 DE SEPTIEMBRE DE 2021.